Date,TemperatureHighF,TemperatureAvgF,TemperatureLowF,DewpointHighF,DewpointAvgF,DewpointLowF,HumidityHigh,HumidityAvg,HumidityLow,PressureMaxIn,PressureMinIn,WindSpeedMaxMPH,WindSpeedAvgMPH,GustSpeedMaxMPH,PrecipitationSumIn
2013-3-1,71.0,53.3,39.0,49.0,44.1,37.0,95,75,37,0.00,40.00,16,3,0,0.00
2013-3-2,67.0,52.1,43.0,49.0,45.0,41.0,94,79,46,0.00,40.00,6,3,0,0.00
2013-3-4,56.0,45.6,38.0,44.0,40.2,37.0,95,81,63,0.00,40.00,6,2,0,0.00
2013-3-5,49.0,44.0,39.0,44.0,40.2,37.0,94,86,73,0.00,40.00,32,9,0,0.00
2013-3-6,51.0,46.3,37.0,44.0,39.7,35.0,94,78,59,0.00,40.00,23,8,0,0.00
2013-3-7,51.0,42.1,34.0,42.0,36.8,33.0,95,83,50,0.00,40.00,25,4,0,0.00
2013-3-8,58.0,43.5,32.0,42.0,36.7,31.0,95,79,49,0.00,40.00,8,3,0,0.00
2013-3-9,68.0,47.6,34.0,42.0,36.8,32.0,94,70,27,0.00,40.00,5,3,0,0.00
2013-3-10,68.0,49.0,35.0,41.0,25.8,-99.9,94,67,24,0.00,40.00,7,4,0,0.00
2013-3-11,71.0,50.3,37.0,48.0,40.8,35.0,94,73,38,0.00,40.00,7,3,0,0.00
2013-3-12,71.0,54.0,39.0,49.0,44.0,37.0,94,72,39,0.00,40.00,6,3,0,0.00
2013-3-13,77.0,56.0,41.0,51.0,45.7,40.0,94,72,32,0.00,40.00,5,3,0,0.00
2013-3-14,69.0,53.0,45.0,50.0,35.6,-99.9,94,77,24,0.00,40.00,5,2,0,0.00
2013-3-15,71.0,55.5,41.0,48.0,43.4,39.0,93,66,45,0.00,40.00,11,4,0,0.00
2013-3-16,70.0,54.8,41.0,45.0,28.0,-99.9,94,60,18,0.00,40.00,11,4,0,0.00
2013-3-17,66.0,52.7,41.0,40.0,26.8,-99.9,89,57,22,0.00,40.00,8,3,0,0.00
2013-3-18,67.0,50.8,36.0,43.0,37.9,34.0,93,64,36,0.00,40.00,5,3,0,0.00
2013-3-19,55.0,48.5,41.0,48.0,37.8,-99.9,92,70,35,0.00,40.00,6,3,0,0.00
2013-3-20,55.0,49.1,45.0,52.0,46.6,42.0,94,91,85,0.00,40.00,17,4,0,0.00
2013-3-21,62.0,47.7,36.0,42.0,33.4,-99.9,95,69,38,0.00,40.00,6,3,0,0.00
2013-3-22,62.0,48.1,35.0,37.0,15.2,-99.9,94,58,25,0.00,40.00,5,2,0,0.00
2013-3-23,66.0,48.9,33.0,40.0,36.0,32.0,95,65,33,0.00,40.00,8,2,0,0.00
2013-3-24,69.0,50.7,37.0,45.0,39.3,35.0,92,68,38,0.00,40.00,5,3,0,0.00
2013-3-25,47.0,41.1,37.0,43.0,39.2,35.0,95,92,83,0.00,40.00,5,2,0,0.00
2013-3-26,62.0,52.4,42.0,47.0,42.5,40.0,94,70,50,0.00,40.00,5,2,0,0.00
2013-3-27,58.0,49.2,44.0,50.0,45.8,41.0,94,87,71,0.00,40.00,37,4,0,0.00
2013-3-28,61.0,52.5,48.0,50.0,47.8,46.0,94,84,64,0.00,40.00,7,3,0,0.00
2013-3-29,72.0,56.5,44.0,52.0,43.9,-99.9,94,75,35,0.00,40.00,11,3,0,0.00
2013-3-30,67.0,54.9,49.0,50.0,47.1,-99.9,93,79,43,0.00,40.00,8,3,0,0.00
2013-3-31,56.0,53.1,51.0,51.0,49.8,48.0,94,88,75,0.00,40.00,15,4,0,0.00